Time;durP1;ratioP1;P1;durP2;ratioP2;P2;SDS_P1;SDS_P2;PMS_P1;PMS_P2;Temp;Humidity;BMP_temperature;BMP_pressure;BME280_temperature;BME280_humidity;BME280_pressure;Samples;Min_cycle;Max_cycle;Signal;HPM_P1;HPM_P2
2023/07/08 00:02:13;;;;;;;16.07;10.00;;;;;;;14.10;61.06;100906.70;1857059;77;27462;-63
2023/07/08 00:04:40;;;;;;;15.18;13.00;;;;;;;14.04;61.37;100907.95;1856950;77;25560;-63
2023/07/08 00:07:11;;;;;;;23.60;21.73;;;;;;;13.98;61.49;100910.03;1856975;77;25426;-64
2023/07/08 00:09:37;;;;;;;12.10;9.30;;;;;;;13.96;62.15;100905.45;1857313;77;25534;-64
2023/07/08 00:12:11;;;;;;;51.20;47.90;;;;;;;13.94;62.30;100905.77;1857385;77;25616;-63
2023/07/08 00:14:38;;;;;;;60.25;56.30;;;;;;;13.92;62.02;100908.57;1857379;77;27505;-62
2023/07/08 00:17:12;;;;;;;75.70;70.78;;;;;;;13.89;61.75;100904.55;1857306;77;25524;-63
2023/07/08 00:19:39;;;;;;;72.70;68.00;;;;;;;13.87;61.71;100901.35;1857115;77;25626;-64
2023/07/08 00:22:13;;;;;;;77.25;71.85;;;;;;;13.85;61.72;100900.88;1857331;77;25536;-63
2023/07/08 00:24:43;;;;;;;80.62;75.37;;;;;;;13.86;61.90;100908.46;1857548;77;25536;-62
2023/07/08 00:27:14;;;;;;;83.10;77.70;;;;;;;13.81;62.16;100900.70;1857525;77;28033;-62
2023/07/08 00:29:40;;;;;;;79.58;74.12;;;;;;;13.80;62.76;100903.17;1857202;77;26798;-63
2023/07/08 00:32:14;;;;;;;83.50;77.90;;;;;;;13.77;62.88;100911.16;1857379;77;25583;-63
2023/07/08 00:34:41;;;;;;;82.00;76.40;;;;;;;13.70;62.47;100907.54;1857367;77;25501;-63
2023/07/08 00:37:12;;;;;;;82.15;76.62;;;;;;;13.66;62.56;100905.22;1857418;77;25599;-63
2023/07/08 00:39:39;;;;;;;81.95;76.12;;;;;;;13.64;62.59;100905.53;1857388;77;28064;-62
2023/07/08 00:42:19;;;;;;;81.60;76.20;;;;;;;13.61;62.60;100903.44;1857318;77;25505;-62
2023/07/08 00:44:45;;;;;;;82.35;76.85;;;;;;;13.58;62.68;100896.47;1816150;79;25562;-62
2023/07/08 00:47:14;;;;;;;83.10;77.47;;;;;;;13.55;62.65;100901.99;1794946;80;25580;-63
2023/07/08 00:49:46;;;;;;;82.10;76.65;;;;;;;13.52;63.26;100909.95;1795113;80;25568;-62
2023/07/08 00:52:29;;;;;;;66.02;61.42;;;;;;;13.49;63.28;100907.87;1795039;79;27666;-62
2023/07/08 00:54:59;;;;;;;81.95;76.45;;;;;;;13.44;63.17;100902.81;1784876;80;26058;-63
2023/07/08 00:57:30;;;;;;;81.47;76.07;;;;;;;13.41;63.29;100907.50;1817204;79;25612;-62
2023/07/08 01:00:11;;;;;;;82.30;76.62;;;;;;;13.39;63.72;100904.30;1795078;80;25573;-62
2023/07/08 01:02:49;;;;;;;80.57;75.00;;;;;;;13.36;63.64;100900.84;1795086;80;25474;-62
2023/07/08 01:05:20;;;;;;;81.45;75.90;;;;;;;13.34;63.49;100901.73;1795026;80;27422;-62
2023/07/08 01:07:51;;;;;;;80.50;75.10;;;;;;;13.32;64.02;100901.80;1784776;80;25609;-62
2023/07/08 01:10:23;;;;;;;81.00;75.47;;;;;;;13.32;63.74;100905.88;1816883;79;25569;-62
2023/07/08 01:12:54;;;;;;;81.20;75.83;;;;;;;13.30;63.74;100905.34;1786250;80;25531;-62
2023/07/08 01:15:24;;;;;;;81.32;75.92;;;;;;;13.27;63.78;100906.21;1784694;80;25376;-61
2023/07/08 01:17:53;;;;;;;82.65;77.03;;;;;;;13.25;64.10;100904.94;1816848;79;27513;-63
2023/07/08 01:20:19;;;;;;;82.62;76.87;;;;;;;13.20;64.33;100903.71;1786201;80;25377;-62
2023/07/08 01:22:46;;;;;;;80.72;75.28;;;;;;;13.14;64.48;100899.52;1784594;80;25479;-62
2023/07/08 01:25:14;;;;;;;82.33;76.97;;;;;;;13.10;64.53;100902.63;1816723;79;25530;-63
2023/07/08 01:27:45;;;;;;;96.02;90.17;;;;;;;13.07;64.65;100904.03;1786261;80;25540;-62
2023/07/08 01:30:14;;;;;;;9.45;7.03;;;;;;;13.02;64.46;100903.59;1784661;80;27508;-62
2023/07/08 01:32:50;;;;;;;12.47;6.77;;;;;;;13.01;64.44;100909.36;1783172;80;25581;-62
2023/07/08 01:35:17;;;;;;;9.55;7.53;;;;;;;12.97;64.54;100908.36;1784600;80;25585;-66
2023/07/08 01:37:55;;;;;;;9.98;7.20;;;;;;;12.94;64.50;100904.90;1786188;80;25455;-61
2023/07/08 01:40:34;;;;;;;10.98;6.75;;;;;;;12.91;64.55;100902.83;1784670;80;25610;-63
2023/07/08 01:43:03;;;;;;;9.83;6.92;;;;;;;12.88;64.60;100901.52;1816997;79;27427;-62
2023/07/08 01:45:37;;;;;;;9.23;7.03;;;;;;;12.85;64.82;100903.48;1784680;80;25587;-63
2023/07/08 01:48:08;;;;;;;9.15;6.62;;;;;;;12.81;64.89;100908.73;1786338;80;25576;-62
2023/07/08 01:50:42;;;;;;;9.83;7.65;;;;;;;12.78;64.79;100908.55;1784663;80;25730;-60
2023/07/08 01:53:20;;;;;;;10.48;6.65;;;;;;;12.76;64.93;100913.50;1816827;79;25530;-61
2023/07/08 01:55:46;;;;;;;8.95;6.85;;;;;;;12.72;65.34;100911.95;1784409;80;27496;-61
2023/07/08 01:58:13;;;;;;;8.08;7.00;;;;;;;12.70;65.12;100908.73;1786130;80;25593;-60
2023/07/08 02:00:39;;;;;;;11.88;7.97;;;;;;;12.66;65.51;100904.47;1784720;80;25650;-61
2023/07/08 02:03:05;;;;;;;9.53;7.80;;;;;;;12.65;65.38;100911.56;1816932;79;25540;-62
2023/07/08 02:05:31;;;;;;;9.48;7.08;;;;;;;12.63;65.29;100915.14;1784842;80;25420;-62
2023/07/08 02:07:58;;;;;;;11.57;7.85;;;;;;;12.62;65.77;100911.64;1785298;80;27415;-61
2023/07/08 02:10:25;;;;;;;12.35;7.50;;;;;;;12.62;65.76;100917.63;1759087;81;25448;-62
2023/07/08 02:12:51;;;;;;;11.60;7.62;;;;;;;12.62;65.61;100909.48;1770774;80;25634;-61
2023/07/08 02:15:39;;;;;;;12.10;7.90;;;;;;;12.60;65.71;100911.69;1770769;80;25603;-61
2023/07/08 02:18:06;;;;;;;10.60;8.03;;;;;;;12.59;65.54;100906.81;1726520;83;25495;-61
2023/07/08 02:20:32;;;;;;;9.65;7.75;;;;;;;12.61;65.67;100907.87;1727227;83;27469;-62
2023/07/08 02:22:58;;;;;;;10.45;7.65;;;;;;;12.62;66.26;100902.70;1727322;83;26058;-61
2023/07/08 02:25:24;;;;;;;10.00;7.25;;;;;;;12.63;65.78;100899.69;1726930;83;25646;-60
2023/07/08 02:27:50;;;;;;;10.63;7.72;;;;;;;12.62;65.67;100894.00;1726319;83;25561;-61
2023/07/08 02:30:16;;;;;;;11.33;7.80;;;;;;;12.62;65.84;100898.63;1726418;83;25703;-62
2023/07/08 02:32:48;;;;;;;9.38;7.50;;;;;;;12.62;65.89;100904.86;1726391;83;27604;-64
2023/07/08 02:35:10;;;;;;;12.75;7.85;;;;;;;12.60;65.77;100904.90;1725519;83;25592;-62
2023/07/08 02:37:36;;;;;;;9.08;7.87;;;;;;;12.58;65.73;100905.77;1726358;83;25511;-61
2023/07/08 02:40:03;;;;;;;10.40;7.87;;;;;;;12.57;65.96;100902.82;1726315;83;25679;-62
2023/07/08 02:42:29;;;;;;;10.48;7.58;;;;;;;12.55;66.54;100900.41;1726389;83;25524;-62
2023/07/08 02:44:56;;;;;;;11.73;8.18;;;;;;;12.54;66.39;100900.16;1726379;83;27545;-62
2023/07/08 02:47:22;;;;;;;11.57;8.58;;;;;;;12.55;66.53;100900.41;1726294;83;25585;-61
2023/07/08 02:49:48;;;;;;;10.53;7.75;;;;;;;12.55;67.02;100900.41;1764777;81;25437;-61
2023/07/08 02:52:14;;;;;;;9.88;7.37;;;;;;;12.52;66.55;100888.25;1768281;81;25733;-63
2023/07/08 02:54:40;;;;;;;11.35;7.90;;;;;;;12.51;66.35;100895.34;1768271;81;25598;-61
2023/07/08 02:57:06;;;;;;;10.05;7.60;;;;;;;12.50;66.50;100893.19;1736175;82;27548;-62
2023/07/08 02:59:32;;;;;;;10.35;7.37;;;;;;;12.49;66.53;100901.63;1737719;82;26941;-62
2023/07/08 03:01:59;;;;;;;9.65;7.12;;;;;;;12.46;66.64;100898.99;1768324;81;25442;-62
2023/07/08 03:04:25;;;;;;;7.72;6.70;;;;;;;12.45;66.66;100899.30;1737779;82;25656;-63
2023/07/08 03:06:52;;;;;;;9.20;7.33;;;;;;;12.43;66.50;100901.48;1768306;81;25572;-62
2023/07/08 03:09:18;;;;;;;8.40;7.17;;;;;;;12.42;66.61;100898.55;1737780;82;27587;-62
2023/07/08 03:11:44;;;;;;;8.93;7.80;;;;;;;12.41;66.77;100899.64;1768177;81;25541;-62
2023/07/08 03:14:10;;;;;;;12.80;7.20;;;;;;;12.43;66.75;100901.48;1768130;81;25444;-62
2023/07/08 03:16:37;;;;;;;8.35;7.45;;;;;;;12.43;66.98;100908.27;1739768;82;25612;-62
2023/07/08 03:19:04;;;;;;;9.55;7.90;;;;;;;12.42;67.09;100905.33;1788063;80;25450;-62
2023/07/08 03:21:31;;;;;;;11.80;8.58;;;;;;;12.44;67.18;100909.89;1788064;80;27540;-63
2023/07/08 03:23:57;;;;;;;9.43;7.58;;;;;;;12.45;67.44;100909.58;1787940;80;25599;-63
2023/07/08 03:26:26;;;;;;;8.78;7.47;;;;;;;12.46;67.50;100907.66;1788015;80;25541;-62
2023/07/08 03:28:53;;;;;;;10.23;7.30;;;;;;;12.47;67.68;100913.34;1788113;80;26034;-63
2023/07/08 03:31:19;;;;;;;9.00;7.62;;;;;;;12.49;67.90;100911.13;1788092;80;25388;-62
2023/07/08 03:33:45;;;;;;;9.78;7.75;;;;;;;12.50;67.90;100909.47;1788005;80;27518;-62
2023/07/08 03:36:22;;;;;;;12.98;8.28;;;;;;;12.52;67.93;100908.59;1787888;80;25837;-61
2023/07/08 03:38:51;;;;;;;10.68;7.75;;;;;;;12.54;68.11;100906.94;1788092;80;25383;-60
2023/07/08 03:41:18;;;;;;;9.83;7.50;;;;;;;12.58;68.26;100911.19;1788256;80;25631;-59
2023/07/08 03:43:44;;;;;;;9.88;7.62;;;;;;;12.61;68.56;100903.23;1788070;80;25499;-62
2023/07/08 03:46:15;;;;;;;11.75;7.85;;;;;;;12.65;68.64;100908.31;1787997;80;27571;-63
2023/07/08 03:48:41;;;;;;;10.75;8.10;;;;;;;12.70;68.71;100905.48;1787976;80;25548;-64
2023/07/08 03:51:16;;;;;;;9.83;7.65;;;;;;;12.76;68.86;100906.15;1788005;80;25590;-63
2023/07/08 03:53:42;;;;;;;10.45;8.23;;;;;;;12.84;69.20;100910.84;1769102;81;26283;-61
2023/07/08 03:56:12;;;;;;;11.88;7.60;;;;;;;12.91;69.31;100907.70;1774451;80;25688;-61
2023/07/08 03:58:39;;;;;;;11.22;7.65;;;;;;;12.96;69.27;100910.28;1788114;80;27465;-61
2023/07/08 04:01:17;;;;;;;10.28;7.87;;;;;;;13.03;69.55;100912.00;1787851;80;25581;-62
2023/07/08 04:03:45;;;;;;;9.75;7.80;;;;;;;13.10;69.63;100909.41;1787993;80;25571;-61
2023/07/08 04:06:11;;;;;;;9.43;8.20;;;;;;;13.17;69.82;100907.84;1787903;80;25566;-62
2023/07/08 04:08:37;;;;;;;8.55;7.12;;;;;;;13.24;70.01;100905.47;1788040;80;25586;-62
2023/07/08 04:11:04;;;;;;;10.45;7.58;;;;;;;13.33;70.12;100906.11;1788083;80;27338;-61
2023/07/08 04:13:31;;;;;;;11.10;8.38;;;;;;;13.41;70.10;100901.28;1787878;80;25405;-61
2023/07/08 04:16:02;;;;;;;8.90;7.40;;;;;;;13.53;70.41;100912.35;1787905;80;25429;-61
2023/07/08 04:18:28;;;;;;;12.70;8.30;;;;;;;13.63;70.42;100903.91;1799650;79;25625;-61
2023/07/08 04:20:55;;;;;;;9.28;7.28;;;;;;;13.76;70.39;100909.02;1799733;79;25584;-62
2023/07/08 04:23:23;;;;;;;9.88;7.53;;;;;;;13.88;70.54;100896.73;1799713;79;27534;-60
2023/07/08 04:25:53;;;;;;;9.80;7.20;;;;;;;13.98;70.52;100900.52;1799580;79;25476;-62
2023/07/08 04:28:19;;;;;;;10.32;8.60;;;;;;;14.11;70.63;100906.92;1799702;79;25464;-63
2023/07/08 04:30:45;;;;;;;9.70;8.28;;;;;;;14.24;70.70;100900.55;1799617;79;25589;-60
2023/07/08 04:33:14;;;;;;;10.38;8.05;;;;;;;14.37;70.56;100901.53;1799705;79;25391;-61
2023/07/08 04:35:42;;;;;;;11.12;8.28;;;;;;;14.50;70.42;100908.70;1799767;79;27552;-62
2023/07/08 04:38:17;;;;;;;8.65;7.70;;;;;;;14.62;70.31;100908.09;1765047;81;25642;-62
2023/07/08 04:40:44;;;;;;;9.10;7.12;;;;;;;14.76;70.40;100912.00;1763681;81;25451;-61
2023/07/08 04:43:13;;;;;;;16.20;8.45;;;;;;;14.87;70.13;100909.20;1765138;81;25549;-62
2023/07/08 04:45:42;;;;;;;12.80;7.92;;;;;;;15.01;69.99;100908.22;1765291;81;25468;-62
2023/07/08 04:48:15;;;;;;;7.80;6.90;;;;;;;15.12;69.78;100896.66;1765311;81;28102;-63
2023/07/08 04:50:44;;;;;;;11.00;7.75;;;;;;;15.23;69.41;100901.18;1763611;81;25586;-62
2023/07/08 04:53:12;;;;;;;10.78;7.28;;;;;;;15.37;69.15;100899.61;1731997;82;25618;-63
2023/07/08 04:55:42;;;;;;;11.88;7.28;;;;;;;15.50;69.11;100901.32;1742324;82;25641;-62
2023/07/08 04:58:08;;;;;;;10.48;7.17;;;;;;;15.64;68.67;100899.73;1742274;82;25589;-62
2023/07/08 05:00:34;;;;;;;11.65;7.00;;;;;;;15.78;68.33;100901.47;1742391;82;27497;-61
2023/07/08 05:03:01;;;;;;;7.65;6.90;;;;;;;15.93;67.83;100902.83;1742255;82;27372;-60
2023/07/08 05:05:27;;;;;;;10.50;7.03;;;;;;;16.08;68.18;100903.62;1742355;82;25426;-60
2023/07/08 05:07:54;;;;;;;11.90;7.62;;;;;;;16.22;67.84;100901.41;1742396;82;25504;-61
2023/07/08 05:10:21;;;;;;;11.22;6.15;;;;;;;16.38;67.19;100902.22;1742501;82;25468;-61
2023/07/08 05:12:48;;;;;;;8.53;6.50;;;;;;;16.52;66.66;100897.84;1742368;82;28285;-61
2023/07/08 05:15:16;;;;;;;11.60;7.30;;;;;;;16.66;66.28;100902.44;1742261;82;25890;-62
2023/07/08 05:20:22;;;;;;;9.30;6.47;;;;;;;16.95;65.60;100903.48;1800646;79;25736;-62
2023/07/08 05:22:48;;;;;;;8.63;6.37;;;;;;;17.11;65.53;100898.98;1799817;79;25504;-62
2023/07/08 05:25:17;;;;;;;9.45;5.58;;;;;;;17.27;64.96;100901.05;1799812;79;29838;-61
2023/07/08 05:27:43;;;;;;;8.78;5.72;;;;;;;17.42;64.58;100900.39;1740476;82;25637;-61
2023/07/08 05:30:17;;;;;;;9.05;6.08;;;;;;;17.59;64.18;100894.45;1740576;82;25599;-61
2023/07/08 05:32:44;;;;;;;10.80;5.75;;;;;;;17.77;63.73;100895.03;1740571;82;25660;-63
2023/07/08 05:35:11;;;;;;;11.60;5.95;;;;;;;17.98;63.64;100889.44;1740686;82;25718;-63
2023/07/08 05:37:39;;;;;;;11.50;6.40;;;;;;;18.19;63.38;100890.67;1740755;82;27635;-62
2023/07/08 05:40:08;;;;;;;7.67;6.28;;;;;;;18.40;62.70;100891.28;1740611;82;25792;-62
2023/07/08 05:42:34;;;;;;;8.13;5.50;;;;;;;18.64;62.69;100895.89;1740896;82;25863;-62
2023/07/08 05:45:00;;;;;;;6.50;5.08;;;;;;;18.88;62.23;100894.19;1776774;79;26393;-62
2023/07/08 05:47:26;;;;;;;8.10;4.97;;;;;;;19.11;61.56;100894.41;1824173;78;25626;-62
2023/07/08 05:49:53;;;;;;;6.85;4.65;;;;;;;19.33;60.06;100896.33;1800682;79;27511;-62
2023/07/08 05:52:19;;;;;;;9.68;5.60;;;;;;;19.55;60.42;100895.70;1824001;78;25559;-62
2023/07/08 05:54:45;;;;;;;6.15;4.53;;;;;;;19.76;58.44;100885.81;1800694;79;25569;-62
2023/07/08 05:57:13;;;;;;;7.87;5.12;;;;;;;19.98;58.68;100894.55;1824123;78;26149;-63
2023/07/08 05:59:39;;;;;;;8.63;4.25;;;;;;;20.18;57.08;100887.72;1800744;79;25558;-62
2023/07/08 06:02:09;;;;;;;7.65;4.83;;;;;;;20.34;56.65;100880.98;1824084;78;27578;-62
2023/07/08 06:04:35;;;;;;;5.37;4.75;;;;;;;20.52;56.25;100884.10;1800638;79;25397;-62
2023/07/08 06:07:01;;;;;;;8.55;5.22;;;;;;;20.71;55.84;100886.66;1824114;78;25529;-61
2023/07/08 06:09:27;;;;;;;11.33;5.17;;;;;;;20.86;54.25;100885.77;1800651;79;25682;-63
2023/07/08 06:11:53;;;;;;;8.25;4.85;;;;;;;20.99;54.61;100885.58;1824127;78;25551;-62
2023/07/08 06:14:20;;;;;;;5.33;4.60;;;;;;;21.17;54.57;100877.06;1800617;79;27536;-62
2023/07/08 06:16:46;;;;;;;6.78;4.90;;;;;;;21.38;53.87;100879.37;1824063;78;25482;-62
2023/07/08 06:19:14;;;;;;;10.72;5.15;;;;;;;21.55;52.98;100879.47;1800647;78;25815;-61
2023/07/08 06:21:40;;;;;;;5.90;4.78;;;;;;;21.70;52.60;100874.19;1824116;78;25557;-63
2023/07/08 06:24:07;;;;;;;10.28;4.83;;;;;;;21.86;51.68;100878.14;1800677;79;25338;-63
2023/07/08 06:26:33;;;;;;;6.47;4.72;;;;;;;22.03;51.98;100876.80;1824135;78;27496;-63
2023/07/08 06:28:59;;;;;;;5.20;4.50;;;;;;;22.20;50.67;100878.99;1800594;79;25819;-63
2023/07/08 06:31:25;;;;;;;5.33;4.58;;;;;;;22.36;50.36;100871.95;1824070;78;25382;-62
2023/07/08 06:33:51;;;;;;;5.70;4.53;;;;;;;22.51;49.89;100865.44;1800616;79;27734;-62
2023/07/08 06:36:18;;;;;;;6.55;4.03;;;;;;;22.72;50.14;100869.00;1824094;78;25514;-62
2023/07/08 06:38:44;;;;;;;6.90;4.20;;;;;;;22.95;49.77;100866.66;1800623;79;27520;-62
2023/07/08 06:41:10;;;;;;;6.15;4.50;;;;;;;23.16;49.09;100866.70;1823983;78;27384;-62
2023/07/08 06:43:36;;;;;;;7.50;4.75;;;;;;;23.38;48.67;100868.45;1800650;79;25592;-62
2023/07/08 06:46:02;;;;;;;7.70;4.00;;;;;;;23.56;47.35;100862.25;1824521;78;25439;-62
2023/07/08 06:48:28;;;;;;;6.45;3.83;;;;;;;23.75;46.19;100870.85;1801897;79;25403;-62
2023/07/08 06:50:55;;;;;;;4.33;3.87;;;;;;;23.92;45.98;100874.93;1825267;78;27532;-62
2023/07/08 06:53:21;;;;;;;5.50;4.05;;;;;;;24.11;46.04;100870.50;1801496;79;27328;-62
2023/07/08 06:55:47;;;;;;;5.05;3.45;;;;;;;24.37;45.70;100865.27;1824056;78;25619;-63
2023/07/08 06:58:13;;;;;;;5.00;3.55;;;;;;;24.63;45.06;100865.38;1800654;79;25571;-63
2023/07/08 07:00:45;;;;;;;4.55;3.22;;;;;;;24.76;42.73;100861.06;1824119;78;25425;-63
2023/07/08 07:03:13;;;;;;;4.25;3.45;;;;;;;24.86;42.07;100856.70;1800680;79;27500;-63
2023/07/08 07:05:40;;;;;;;6.75;3.45;;;;;;;25.03;42.09;100860.11;1824005;78;25834;-63
2023/07/08 07:08:07;;;;;;;5.80;3.30;;;;;;;25.21;41.89;100848.23;1800604;79;25521;-49
2023/07/08 07:10:34;;;;;;;3.12;2.80;;;;;;;25.45;42.17;100846.66;1823981;78;25573;-65
2023/07/08 07:13:01;;;;;;;6.03;3.05;;;;;;;25.75;41.97;100846.20;1800568;79;25390;-66
2023/07/08 07:15:29;;;;;;;3.67;2.90;;;;;;;26.04;41.35;100838.62;1824040;78;28113;-66
2023/07/08 07:17:55;;;;;;;6.30;3.40;;;;;;;26.38;41.21;100839.45;1800730;79;25874;-65
2023/07/08 07:20:21;;;;;;;6.87;3.52;;;;;;;26.71;39.85;100837.89;1814299;78;25898;-64
2023/07/08 07:22:48;;;;;;;4.95;3.80;;;;;;;26.89;39.31;100837.17;1788258;80;25484;-65
2023/07/08 07:25:15;;;;;;;3.42;2.87;;;;;;;27.10;38.69;100834.81;1811089;79;25554;-66
2023/07/08 07:27:41;;;;;;;6.70;3.50;;;;;;;27.34;38.79;100837.20;1788278;80;27546;-64
2023/07/08 07:30:12;;;;;;;6.92;3.00;;;;;;;27.57;37.67;100838.58;1811011;79;25461;-64
2023/07/08 07:32:37;;;;;;;4.30;3.45;;;;;;;27.84;37.72;100835.91;1788271;80;25527;-65
2023/07/08 07:35:05;;;;;;;4.87;3.45;;;;;;;28.20;37.35;100834.09;1817321;79;25510;-66
2023/07/08 07:37:32;;;;;;;3.33;2.90;;;;;;;28.41;36.33;100833.00;1817579;79;25439;-65
2023/07/08 07:39:58;;;;;;;4.00;3.37;;;;;;;28.57;35.89;100828.84;1817381;79;27511;-66
2023/07/08 07:42:27;;;;;;;4.97;3.30;;;;;;;28.79;35.79;100832.08;1817371;78;25629;-64
2023/07/08 07:44:53;;;;;;;3.70;2.85;;;;;;;29.10;35.52;100822.22;1821275;78;25627;-63
2023/07/08 07:47:20;;;;;;;6.28;2.90;;;;;;;29.49;35.15;100831.33;1817398;78;26257;-63
2023/07/08 07:49:46;;;;;;;5.85;2.72;;;;;;;29.72;34.31;100828.30;1817412;79;25358;-62
2023/07/08 07:52:15;;;;;;;8.30;7.33;;;;;;;29.96;34.12;100822.83;1817404;78;27476;-65
2023/07/08 07:54:42;;;;;;;4.40;2.52;;;;;;;30.17;32.07;100824.98;1817239;78;25589;-64
2023/07/08 07:57:08;;;;;;;5.00;2.55;;;;;;;30.15;31.61;100820.45;1817324;79;25370;-64
2023/07/08 07:59:34;;;;;;;4.22;2.87;;;;;;;30.16;31.55;100817.23;1817335;79;25609;-65
2023/07/08 08:02:03;;;;;;;26.73;25.00;;;;;;;30.22;31.69;100816.11;1817420;78;25376;-65
2023/07/08 08:04:37;;;;;;;6.10;2.80;;;;;;;30.63;31.63;100812.03;1817617;78;28045;-64
2023/07/08 08:07:04;;;;;;;60.05;56.68;;;;;;;30.63;31.63;100812.03;1698743;84;25750;-66
2023/07/08 08:09:31;;;;;;;63.73;60.35;;;;;;;30.58;30.39;100811.16;1698888;84;25728;-64
2023/07/08 08:11:57;;;;;;;66.05;62.65;;;;;;;30.44;30.72;100803.88;1698866;84;26076;-64
2023/07/08 08:14:24;;;;;;;58.65;55.38;;;;;;;30.27;30.11;100810.02;1698949;84;25615;-64
2023/07/08 08:16:50;;;;;;;64.10;60.45;;;;;;;30.10;29.54;100804.23;1698885;84;27520;-62
2023/07/08 08:19:16;;;;;;;62.45;58.95;;;;;;;29.97;30.16;100806.91;1701674;83;25472;-62
2023/07/08 08:21:43;;;;;;;64.37;60.78;;;;;;;30.08;30.70;100801.09;1714379;83;25581;-64
2023/07/08 08:24:10;;;;;;;62.08;58.75;;;;;;;30.30;30.81;100804.20;1714297;83;25496;-62
2023/07/08 08:26:36;;;;;;;63.33;59.83;;;;;;;30.60;30.18;100810.11;1714360;83;25595;-64
2023/07/08 08:29:03;;;;;;;62.83;59.23;;;;;;;30.80;29.00;100811.43;1714370;83;27475;-64
2023/07/08 08:31:31;;;;;;;61.33;58.23;;;;;;;30.66;28.60;100815.33;1714402;83;25496;-63
2023/07/08 08:33:57;;;;;;;;;;;;;;;30.59;28.21;100810.55;1716918;83;25636;-62
2023/07/08 08:36:24;;;;;;;29.25;27.00;;;;;;;30.54;28.03;100818.20;1714633;83;25586;-64
2023/07/08 08:38:52;;;;;;;12.47;11.78;;;;;;;30.56;28.14;100826.14;1714452;83;25674;-67
2023/07/08 08:41:24;;;;;;;63.48;60.17;;;;;;;30.65;27.72;100822.73;1714532;83;27452;-57
2023/07/08 08:43:52;;;;;;;20.85;19.70;;;;;;;30.76;28.66;100820.48;1745190;78;25709;-50
2023/07/08 08:46:40;;;;;;;61.70;58.63;;;;;;;31.04;29.47;100817.64;1838099;78;25386;-59
2023/07/08 08:49:22;;;;;;;;;;;;;;;31.16;28.96;100814.74;1840704;78;25826;-58
2023/07/08 08:51:51;;;;;;;62.17;58.63;;;;;;;31.16;29.73;100816.14;1838032;78;25576;-55
2023/07/08 08:54:18;;;;;;;61.98;58.50;;;;;;;31.24;29.71;100819.52;1838148;78;26953;-58
2023/07/08 08:57:14;;;;;;;61.25;58.05;;;;;;;31.44;30.62;100811.78;1837905;78;25362;-53
2023/07/08 09:18:25;;;;;;;73.02;68.90;;;;;;;;;;1722338;78;26906;31
2023/07/08 09:20:53;;;;;;;62.67;58.00;;;;;;;;;;1756616;81;27573;-59
2023/07/08 09:23:25;;;;;;;39.92;37.53;;;;;;;;;;1756425;81;25460;-57
2023/07/08 09:25:58;;;;;;;58.52;55.23;;;;;;;;;;1772535;81;25522;-57
2023/07/08 09:28:43;;;;;;;61.10;58.00;;;;;;;;;;1759204;81;25554;-59
2023/07/08 09:31:18;;;;;;;8.00;7.42;;;;;;;;;;1759189;81;25381;-59
2023/07/08 09:33:44;;;;;;;60.73;57.60;;;;;;;;;;1756856;81;27489;-58
2023/07/08 09:36:23;;;;;;;61.63;58.23;;;;;;;;;;1757791;81;25765;-57
2023/07/08 09:38:51;;;;;;;60.10;56.88;;;;;;;;;;1758754;81;25449;-60
2023/07/08 09:41:32;;;;;;;58.28;55.30;;;;;;;;;;1759284;81;25489;-57
2023/07/08 09:44:04;;;;;;;57.62;54.53;;;;;;;;;;1759235;81;25560;-56
2023/07/08 09:46:37;;;;;;;17.27;16.27;;;;;;;;;;1759177;81;28286;-58
2023/07/08 09:49:19;;;;;;;58.80;55.90;;;;;;;;;;1759185;81;25586;-57
2023/07/08 09:51:48;;;;;;;61.33;58.13;;;;;;;;;;1752068;81;25602;-57
2023/07/08 09:54:14;;;;;;;61.25;58.05;;;;;;;;;;1759077;81;25506;-58
2023/07/08 09:56:43;;;;;;;57.65;54.85;;;;;;;;;;1759095;81;25466;-55
2023/07/08 09:59:14;;;;;;;58.23;55.23;;;;;;;;;;1758799;81;27569;-59
2023/07/08 10:01:42;;;;;;;56.37;53.48;;;;;;;;;;1759133;81;25576;-55
2023/07/08 10:04:08;;;;;;;59.00;55.63;;;;;;;;;;1731650;81;25531;-57
2023/07/08 10:06:35;;;;;;;6.20;4.97;;;;;;;;;;1757935;81;26053;-56
2023/07/08 10:09:12;;;;;;;56.95;53.83;;;;;;;;;;1759123;81;25640;-58
2023/07/08 10:11:48;;;;;;;58.13;55.08;;;;;;;;;;1759356;81;28174;-58
2023/07/08 10:14:24;;;;;;;56.80;53.50;;;;;;;;;;1759147;81;25598;-59
2023/07/08 10:16:50;;;;;;;58.42;55.25;;;;;;;;;;1754722;81;25572;-58
2023/07/08 10:19:19;;;;;;;56.02;53.08;;;;;;;;;;1759012;81;25617;-59
2023/07/08 10:21:52;;;;;;;56.92;54.03;;;;;;;;;;1758514;81;25685;-58
2023/07/08 10:24:40;;;;;;;53.87;50.80;;;;;;;;;;1757207;81;27417;-58
2023/07/08 10:27:22;;;;;;;53.52;50.70;;;;;;;;;;1759324;81;25556;-60
2023/07/08 10:30:12;;;;;;;56.18;53.48;;;;;;;;;;1759324;81;25655;-59
2023/07/08 10:35:36;;;;;;;52.70;49.88;;;;;;;;;;1718281;83;25494;-57
2023/07/08 10:38:38;;;;;;;56.85;53.63;;;;;;;;;;1705538;84;27577;-56
2023/07/08 10:41:13;;;;;;;54.67;51.90;;;;;;;;;;1724983;83;25457;-58
2023/07/08 10:43:52;;;;;;;55.58;52.67;;;;;;;;;;1725590;83;25458;-58
2023/07/08 10:46:50;;;;;;;54.03;51.33;;;;;;;;;;1724236;83;25771;-59
2023/07/08 10:49:41;;;;;;;58.05;54.95;;;;;;;;;;1725634;83;25628;-61
2023/07/08 10:52:33;;;;;;;61.98;58.75;;;;;;;;;;1724277;83;27618;-58
2023/07/08 10:55:20;;;;;;;60.98;57.98;;;;;;;;;;1723471;83;25797;-58
2023/07/08 10:57:56;;;;;;;62.70;59.63;;;;;;;;;;1680245;85;25839;-59
2023/07/08 11:00:26;;;;;;;66.15;62.80;;;;;;;;;;1710472;83;26269;-61
2023/07/08 11:03:28;;;;;;;64.65;61.35;;;;;;;;;;1680256;85;25838;-59
2023/07/08 11:06:03;;;;;;;63.33;59.93;;;;;;;;;;1711164;83;27600;-60
2023/07/08 11:08:33;;;;;;;61.65;58.55;;;;;;;;;;1681810;85;25689;-60
2023/07/08 11:11:34;;;;;;;63.30;60.08;;;;;;;;;;1712254;83;25767;-59
2023/07/08 11:14:13;;;;;;;61.68;58.68;;;;;;;;;;1707436;83;25630;-60
2023/07/08 11:16:41;;;;;;;;;;;;;;;;;;1746185;82;25483;-60
2023/07/08 11:19:19;;;;;;;60.35;57.13;;;;;;;;;;1743701;82;27670;-60
2023/07/08 11:21:48;;;;;;;61.92;58.90;;;;;;;;;;1738869;82;29447;-59
2023/07/08 11:24:27;;;;;;;58.60;55.65;;;;;;;;;;1747305;82;25580;-59
2023/07/08 11:26:57;;;;;;;58.95;55.98;;;;;;;;;;1707219;84;25891;-60
2023/07/08 11:29:39;;;;;;;62.13;59.10;;;;;;;;;;1743462;82;25390;-62
2023/07/08 11:32:09;;;;;;;61.15;58.02;;;;;;;;;;1723728;82;29866;-61
2023/07/08 11:34:36;;;;;;;61.58;58.33;;;;;;;;;;1775680;80;25784;-59
2023/07/08 11:37:03;;;;;;;59.75;56.53;;;;;;;;;;1760521;81;25623;-60
2023/07/08 11:39:45;;;;;;;60.20;57.13;;;;;;;;;;1760754;81;25551;-60
2023/07/08 11:42:20;;;;;;;60.55;57.55;;;;;;;;;;1760572;81;25415;-62
2023/07/08 11:44:52;;;;;;;60.73;57.48;;;;;;;;;;1760538;81;28106;-62
2023/07/08 11:47:25;;;;;;;58.25;55.30;;;;;;;;;;1776635;79;25736;-61
2023/07/08 11:49:53;;;;;;;58.45;55.48;;;;;;;;;;1777733;80;25570;-61
2023/07/08 11:52:21;;;;;;;61.15;57.98;;;;;;;;;;1761373;81;25569;-61
2023/07/08 11:54:50;;;;;;;62.57;59.47;;;;;;;;;;1732424;81;25492;-60
2023/07/08 11:57:25;;;;;;;63.60;60.40;;;;;;;;;;1761274;81;28031;-62
2023/07/08 12:00:12;;;;;;;64.53;61.28;;;;;;;;;;1761224;81;25462;-61
2023/07/08 12:02:51;;;;;;;62.75;59.65;;;;;;;;;;1761355;81;25537;-58
2023/07/08 12:05:22;;;;;;;64.72;61.10;;;;;;;;;;1761329;81;25711;-63
2023/07/08 12:07:51;;;;;;;62.48;59.42;;;;;;;;;;1771570;80;25447;-66
2023/07/08 12:10:35;;;;;;;62.05;59.03;;;;;;;;;;1757873;81;28057;-67
2023/07/08 12:13:02;;;;;;;63.33;59.88;;;;;;;;;;1757836;81;25408;-64
2023/07/08 12:15:32;;;;;;;4.60;2.75;;;;;;;;;;1757817;81;25613;-76
2023/07/08 12:18:03;;;;;;;4.47;2.70;;;;;;;;;;1777531;80;25662;-69
2023/07/08 12:20:36;;;;;;;3.22;2.55;;;;;;;;;;1758390;81;25455;-67
2023/07/08 12:23:03;;;;;;;2.77;2.25;;;;;;;;;;1758614;81;28069;-66
2023/07/08 12:25:34;;;;;;;9.60;8.75;;;;;;;;;;1732551;81;25475;-63
2023/07/08 12:28:02;;;;;;;64.03;60.70;;;;;;;;;;1758626;81;25424;-63
2023/07/08 12:30:32;;;;;;;62.83;59.63;;;;;;;;;;1758654;81;25622;-71
2023/07/08 12:33:03;;;;;;;64.55;61.25;;;;;;;;;;1758653;81;25522;-69
2023/07/08 12:35:32;;;;;;;64.65;61.37;;;;;;;;;;1758098;81;27476;-72
2023/07/08 12:38:02;;;;;;;63.38;60.17;;;;;;;;;;1758097;81;25407;-67
2023/07/08 12:40:30;;;;;;;61.10;58.10;;;;;;;;;;1758042;81;25401;-66